Australian Towns and Cities METAR Reports

YMHB - Hobart/Tasmania, Australia
Distance from Franklin: NE 48km
Updated: 17/01/2018 21:30
Mostly cloudy
Mostly cloudy
 Wind from ESE
Wind: ESE 9 km/h
Temperature: 15°C
Dew Point: 11°C
Humidity: 77%
Barometer: 1018 hPa
Clouds: Mostly cloudy
Visibility: 10 km
Cloud details: Few Clouds 1067 m
Mostly cloudy 10058 m
2018/01/17 10:30 YMHB 171030Z 11005KT 9999 FEW035 BKN330 15/11 Q1018 RF00.0/000.0
YMLT - Launceston Airpo, Australia
Distance from Franklin: N 176km
Updated: 17/01/2018 22:00
Clear
Clear
 Wind from N
Wind: N 13 km/h
Temperature: 16°C
Dew Point: 7°C
Humidity: 55%
Barometer: 1017 hPa
Clouds: Clear
Visibility: 10 km
2018/01/17 11:00 YMLT 171100Z AUTO 35007KT 9999 // NCD 16/07 Q1017
 
YMML - Melbourne Intl A, Australia
Distance from Franklin: NNW 631km
Updated: 17/01/2018 21:30
Clear
Clear
 Wind from W
Wind: W 11 km/h
Temperature: 21°C
Dew Point: 11°C
Humidity: 53%
Barometer: 1016 hPa
Summary: Clear
Visibility: greater than 10 km
2018/01/17 10:30 YMML 171030Z 27006KT CAVOK 21/11 Q1016 NOSIG
YSCB - Canberra (civ/Mi, Australia
Distance from Franklin: NNE 888km
Updated: 17/01/2018 22:00
Clear
Clear
 Wind from ENE
Wind: ENE 11 km/h
Temperature: 19°C
Dew Point: 8°C
Humidity: 49%
Barometer: 1020 hPa
Clouds: Clear
Visibility: 10 km
2018/01/17 11:00 YSCB 171100Z AUTO 07006KT 9999 // NCD 19/08 Q1020
 
YSSY - Sydney Intl Airp, Australia
Distance from Franklin: NNE 1083km
Updated: 17/01/2018 21:30
Clear
Clear
 Wind from S
Wind: S 17 km/h
Temperature: 20°C
Dew Point: 16°C
Humidity: 78%
Barometer: 1019 hPa
Summary: Clear
Visibility: greater than 10 km
2018/01/17 10:30 YSSY 171030Z 17009KT CAVOK 20/16 Q1019 NOSIG
YPAD - Adelaide Intl Ar, Australia
Distance from Franklin: NW 1166km
Updated: 17/01/2018 21:30
Clear
Clear
 Wind from S
Wind: S 11 km/h
Temperature: 30°C
Dew Point: 7°C
Humidity: 24%
Barometer: 1011 hPa
Summary: Clear
Visibility: greater than 10 km
2018/01/17 10:30 YPAD 171030Z 17006KT CAVOK 30/07 Q1011 NOSIG
 
YBBN - Brisbane Intl Ar, Australia
Distance from Franklin: NNE 1836km
Updated: 17/01/2018 21:30
Few Clouds
Few Clouds
 Wind from E
Wind: E 13 km/h
Temperature: 23°C
Dew Point: 16°C
Humidity: 65%
Barometer: 1018 hPa
Clouds: Few Clouds
Visibility: 10 km
Cloud details: Few Clouds 914 m
2018/01/17 10:30 YBBN 171030Z 10007KT 9999 FEW030 23/16 Q1018 NOSIG
YBMK - Mackay, Australia
Distance from Franklin: N 2456km
Updated: 17/01/2018 21:00
Partly cloudy
Partly cloudy
 Wind from ESE
Wind: ESE 31 km/h
Temperature: 27°C
Heat Index: 28°C
Dew Point: 18°C
Humidity: 58%
Barometer: 1014 hPa
Clouds: Partly cloudy
Visibility: 10 km
Cloud details: Partly cloudy 1097 m
2018/01/17 10:00 YBMK 171000Z AUTO 11017KT 9999 // SCT036 27/18 Q1014
 
YBAS - Alice Springs Ar, Australia
Distance from Franklin: NNW 2462km
Updated: 17/01/2018 21:30
Clear
Clear
 Wind from NE
Wind: NE 30 km/h
Temperature: 32°C
Dew Point: 10°C
Humidity: 26%
Barometer: 1009 hPa
Clouds: Clear
Visibility: 10 km
2018/01/17 10:30 YBAS 171030Z AUTO 05016KT 9999 // NCD 32/10 Q1009 RF00.0/000.0
YBTL - Townsville(Civ/M, Australia
Distance from Franklin: N 2655km
Updated: 17/01/2018 22:00
Overcast
Overcast
 Wind from ESE
Wind: ESE 24 km/h
Temperature: 27°C
Heat Index: 29°C
Dew Point: 21°C
Humidity: 70%
Barometer: 1013 hPa
Clouds: Overcast
Visibility: 10 km
Cloud details: Overcast 2926 m
2018/01/17 11:00 YBTL 171100Z AUTO 11013KT 9999 // OVC096 27/21 Q1013
 
YBCS - Cairns Airport, Australia
Distance from Franklin: N 2923km
Updated: 17/01/2018 21:30
Mostly cloudy
Mostly cloudy
 Wind from SSE
Wind: SSE 17 km/h
Temperature: 26°C
Dew Point: 21°C
Humidity: 74%
Barometer: 1011 hPa
Clouds: Mostly cloudy
Visibility: 10 km
Cloud details: Few Clouds 701 m
Mostly cloudy 4267 m
2018/01/17 10:30 YBCS 171030Z 16009KT 9999 FEW023 BKN140 26/21 Q1011 INTER 1200/1330 3000 SHRA BKN018
YPPH - Perth Intl/Belmo, Australia
Distance from Franklin: WNW 2982km
Updated: 17/01/2018 21:30
Overcast
Overcast
 Wind from SW
Wind: SW 28 km/h
Temperature: 23°C
Dew Point: 19°C
Humidity: 78%
Barometer: 1006 hPa
Clouds: Overcast
Visibility: 10 km
Cloud details: Overcast 518 m
2018/01/17 10:30 YPPH 171030Z 23015KT 9999 OVC017 23/19 Q1006
 
YPDN - Darwin (civ/Mil), Australia
Distance from Franklin: NNW 3749km
Updated: 17/01/2018 21:30
Mostly cloudy
Mostly cloudy
 Wind from W
Wind: W 9 km/h
Temperature: 29°C
Heat Index: 34°C
Dew Point: 25°C
Humidity: 79%
Barometer: 1005 hPa
Clouds: Mostly cloudy
Visibility: 10 km
Cloud details: Few Clouds 610 m
Partly cloudy 5486 m
Mostly cloudy 10668 m
2018/01/17 10:30 YPDN 171030Z 27005KT 9999 FEW020 SCT180 BKN350 29/25 Q1005 TEMPO 1200/1230 VRB20G35KT 1000 TSRA BKN010 SCT020CB RMK USE TAF FOR ARRIVALS AFTER 1230Z
YBWX - Barrow Island, Australia
Distance from Franklin: NW 3832km
Updated: 17/01/2018 22:00

 Wind from WSW
Wind: WSW 13 km/h
Temperature: 30°C
Heat Index: 35°C
Dew Point: 24°C
Humidity: 70%
Barometer: 1004 hPa
2018/01/17 11:00 YBWX 171100Z AUTO 25007KT //// // ////// 30/24 Q1004